sensor_id;sensor_type;location;lat;lon;timestamp;P1;durP1;ratioP1;P2;durP2;ratioP2
66485;SDS011;53303;47.476;8.084;2024-01-15T00:00:51;7.72;;;2.75;;
66485;SDS011;53303;47.476;8.084;2024-01-15T00:03:18;9.30;;;2.90;;
66485;SDS011;53303;47.476;8.084;2024-01-15T00:05:44;7.57;;;3.40;;
66485;SDS011;53303;47.476;8.084;2024-01-15T00:08:09;6.97;;;2.85;;
66485;SDS011;53303;47.476;8.084;2024-01-15T00:10:34;7.28;;;3.13;;
66485;SDS011;53303;47.476;8.084;2024-01-15T00:13:00;8.20;;;3.05;;
66485;SDS011;53303;47.476;8.084;2024-01-15T00:15:25;7.70;;;2.78;;
66485;SDS011;53303;47.476;8.084;2024-01-15T00:17:56;7.55;;;3.33;;
66485;SDS011;53303;47.476;8.084;2024-01-15T00:20:21;6.65;;;2.42;;
66485;SDS011;53303;47.476;8.084;2024-01-15T00:22:47;5.93;;;2.75;;
66485;SDS011;53303;47.476;8.084;2024-01-15T00:25:12;6.78;;;2.80;;
66485;SDS011;53303;47.476;8.084;2024-01-15T00:27:37;6.43;;;3.25;;
66485;SDS011;53303;47.476;8.084;2024-01-15T00:30:05;8.80;;;3.28;;
66485;SDS011;53303;47.476;8.084;2024-01-15T00:32:31;6.75;;;2.85;;
66485;SDS011;53303;47.476;8.084;2024-01-15T00:34:59;6.90;;;3.08;;
66485;SDS011;53303;47.476;8.084;2024-01-15T00:37:24;7.75;;;2.70;;
66485;SDS011;53303;47.476;8.084;2024-01-15T00:39:52;6.97;;;3.00;;
66485;SDS011;53303;47.476;8.084;2024-01-15T00:42:17;7.70;;;3.05;;
66485;SDS011;53303;47.476;8.084;2024-01-15T00:44:43;5.82;;;3.00;;
66485;SDS011;53303;47.476;8.084;2024-01-15T00:47:08;7.75;;;3.20;;
66485;SDS011;53303;47.476;8.084;2024-01-15T00:49:34;6.65;;;2.75;;
66485;SDS011;53303;47.476;8.084;2024-01-15T00:51:59;6.47;;;2.78;;
66485;SDS011;53303;47.476;8.084;2024-01-15T00:54:24;6.05;;;2.88;;
66485;SDS011;53303;47.476;8.084;2024-01-15T00:56:50;6.03;;;2.63;;
66485;SDS011;53303;47.476;8.084;2024-01-15T00:59:15;5.75;;;2.95;;
66485;SDS011;53303;47.476;8.084;2024-01-15T01:01:43;7.32;;;3.13;;
66485;SDS011;53303;47.476;8.084;2024-01-15T01:04:11;5.70;;;2.58;;
66485;SDS011;53303;47.476;8.084;2024-01-15T01:06:37;8.15;;;2.95;;
66485;SDS011;53303;47.476;8.084;2024-01-15T01:09:02;6.75;;;2.70;;
66485;SDS011;53303;47.476;8.084;2024-01-15T01:11:30;9.05;;;2.83;;
66485;SDS011;53303;47.476;8.084;2024-01-15T01:13:56;5.82;;;2.75;;
66485;SDS011;53303;47.476;8.084;2024-01-15T01:16:22;6.50;;;2.85;;
66485;SDS011;53303;47.476;8.084;2024-01-15T01:18:50;6.72;;;2.78;;
66485;SDS011;53303;47.476;8.084;2024-01-15T01:21:15;7.90;;;2.80;;
66485;SDS011;53303;47.476;8.084;2024-01-15T01:23:41;6.22;;;2.67;;
66485;SDS011;53303;47.476;8.084;2024-01-15T01:26:09;6.78;;;2.80;;
66485;SDS011;53303;47.476;8.084;2024-01-15T01:28:40;7.75;;;3.20;;
66485;SDS011;53303;47.476;8.084;2024-01-15T01:31:05;8.27;;;3.13;;
66485;SDS011;53303;47.476;8.084;2024-01-15T01:33:30;7.03;;;2.67;;
66485;SDS011;53303;47.476;8.084;2024-01-15T01:35:58;6.35;;;2.83;;
66485;SDS011;53303;47.476;8.084;2024-01-15T01:38:23;6.68;;;2.95;;
66485;SDS011;53303;47.476;8.084;2024-01-15T01:40:51;8.20;;;2.90;;
66485;SDS011;53303;47.476;8.084;2024-01-15T01:43:16;7.28;;;3.03;;
66485;SDS011;53303;47.476;8.084;2024-01-15T01:45:41;9.38;;;3.10;;
66485;SDS011;53303;47.476;8.084;2024-01-15T01:48:09;8.23;;;2.83;;
66485;SDS011;53303;47.476;8.084;2024-01-15T01:50:35;8.27;;;2.80;;
66485;SDS011;53303;47.476;8.084;2024-01-15T01:53:01;7.45;;;2.80;;
66485;SDS011;53303;47.476;8.084;2024-01-15T01:55:29;6.93;;;2.67;;
66485;SDS011;53303;47.476;8.084;2024-01-15T01:57:58;6.70;;;3.00;;
66485;SDS011;53303;47.476;8.084;2024-01-15T02:00:24;7.40;;;2.90;;
66485;SDS011;53303;47.476;8.084;2024-01-15T02:02:50;7.72;;;3.03;;
66485;SDS011;53303;47.476;8.084;2024-01-15T02:05:17;6.38;;;2.83;;
66485;SDS011;53303;47.476;8.084;2024-01-15T02:07:44;7.70;;;3.10;;
66485;SDS011;53303;47.476;8.084;2024-01-15T02:10:10;6.10;;;2.85;;
66485;SDS011;53303;47.476;8.084;2024-01-15T02:12:38;8.32;;;3.20;;
66485;SDS011;53303;47.476;8.084;2024-01-15T02:15:03;8.35;;;3.20;;
66485;SDS011;53303;47.476;8.084;2024-01-15T02:17:29;9.18;;;3.00;;
66485;SDS011;53303;47.476;8.084;2024-01-15T02:19:54;6.82;;;2.90;;
66485;SDS011;53303;47.476;8.084;2024-01-15T02:22:25;8.20;;;3.42;;
66485;SDS011;53303;47.476;8.084;2024-01-15T02:24:50;6.63;;;3.03;;
66485;SDS011;53303;47.476;8.084;2024-01-15T02:27:16;8.23;;;3.13;;
66485;SDS011;53303;47.476;8.084;2024-01-15T02:29:42;7.82;;;3.25;;
66485;SDS011;53303;47.476;8.084;2024-01-15T02:32:08;6.28;;;3.10;;
66485;SDS011;53303;47.476;8.084;2024-01-15T02:34:34;6.82;;;3.40;;
66485;SDS011;53303;47.476;8.084;2024-01-15T02:36:59;7.75;;;3.13;;
66485;SDS011;53303;47.476;8.084;2024-01-15T02:39:25;7.38;;;3.40;;
66485;SDS011;53303;47.476;8.084;2024-01-15T02:41:50;7.50;;;3.33;;
66485;SDS011;53303;47.476;8.084;2024-01-15T02:44:16;9.13;;;3.47;;
66485;SDS011;53303;47.476;8.084;2024-01-15T02:46:41;8.85;;;3.05;;
66485;SDS011;53303;47.476;8.084;2024-01-15T02:49:09;9.00;;;3.70;;
66485;SDS011;53303;47.476;8.084;2024-01-15T02:51:35;11.77;;;3.30;;
66485;SDS011;53303;47.476;8.084;2024-01-15T02:54:00;8.25;;;3.17;;
66485;SDS011;53303;47.476;8.084;2024-01-15T02:56:26;8.68;;;3.55;;
66485;SDS011;53303;47.476;8.084;2024-01-15T02:58:53;7.60;;;2.90;;
66485;SDS011;53303;47.476;8.084;2024-01-15T03:01:19;7.38;;;3.65;;
66485;SDS011;53303;47.476;8.084;2024-01-15T03:03:47;6.80;;;2.85;;
66485;SDS011;53303;47.476;8.084;2024-01-15T03:06:12;8.40;;;3.78;;
66485;SDS011;53303;47.476;8.084;2024-01-15T03:08:38;7.57;;;3.28;;
66485;SDS011;53303;47.476;8.084;2024-01-15T03:11:06;7.70;;;3.05;;
66485;SDS011;53303;47.476;8.084;2024-01-15T03:13:31;8.43;;;3.50;;
66485;SDS011;53303;47.476;8.084;2024-01-15T03:16:04;6.75;;;3.33;;
66485;SDS011;53303;47.476;8.084;2024-01-15T03:18:30;8.55;;;3.75;;
66485;SDS011;53303;47.476;8.084;2024-01-15T03:20:55;7.57;;;2.95;;
66485;SDS011;53303;47.476;8.084;2024-01-15T03:23:21;7.28;;;2.88;;
66485;SDS011;53303;47.476;8.084;2024-01-15T03:25:46;6.55;;;3.10;;
66485;SDS011;53303;47.476;8.084;2024-01-15T03:28:14;6.68;;;2.88;;
66485;SDS011;53303;47.476;8.084;2024-01-15T03:30:39;7.50;;;3.10;;
66485;SDS011;53303;47.476;8.084;2024-01-15T03:33:05;7.25;;;3.40;;
66485;SDS011;53303;47.476;8.084;2024-01-15T03:35:30;6.43;;;2.67;;
66485;SDS011;53303;47.476;8.084;2024-01-15T03:37:56;6.57;;;2.95;;
66485;SDS011;53303;47.476;8.084;2024-01-15T03:40:21;7.82;;;3.45;;
66485;SDS011;53303;47.476;8.084;2024-01-15T03:42:46;7.63;;;3.42;;
66485;SDS011;53303;47.476;8.084;2024-01-15T03:45:12;7.25;;;3.05;;
66485;SDS011;53303;47.476;8.084;2024-01-15T03:47:37;8.02;;;3.30;;
66485;SDS011;53303;47.476;8.084;2024-01-15T03:50:03;8.90;;;3.80;;
66485;SDS011;53303;47.476;8.084;2024-01-15T03:52:31;8.30;;;3.38;;
66485;SDS011;53303;47.476;8.084;2024-01-15T03:54:56;8.02;;;2.90;;
66485;SDS011;53303;47.476;8.084;2024-01-15T03:57:22;8.55;;;3.42;;
66485;SDS011;53303;47.476;8.084;2024-01-15T03:59:47;8.50;;;3.50;;
66485;SDS011;53303;47.476;8.084;2024-01-15T04:02:12;8.48;;;3.22;;
66485;SDS011;53303;47.476;8.084;2024-01-15T04:04:41;8.25;;;3.08;;
66485;SDS011;53303;47.476;8.084;2024-01-15T04:07:08;11.63;;;3.45;;
66485;SDS011;53303;47.476;8.084;2024-01-15T04:09:39;7.38;;;2.97;;
66485;SDS011;53303;47.476;8.084;2024-01-15T04:12:04;7.05;;;3.30;;
66485;SDS011;53303;47.476;8.084;2024-01-15T04:14:30;6.78;;;2.72;;
66485;SDS011;53303;47.476;8.084;2024-01-15T04:16:55;7.35;;;3.05;;
66485;SDS011;53303;47.476;8.084;2024-01-15T04:19:26;7.07;;;3.40;;
66485;SDS011;53303;47.476;8.084;2024-01-15T04:21:51;7.57;;;2.90;;
66485;SDS011;53303;47.476;8.084;2024-01-15T04:24:17;7.20;;;3.03;;
66485;SDS011;53303;47.476;8.084;2024-01-15T04:26:43;8.75;;;3.28;;
66485;SDS011;53303;47.476;8.084;2024-01-15T04:29:11;9.60;;;3.67;;
66485;SDS011;53303;47.476;8.084;2024-01-15T04:31:37;7.70;;;3.20;;
66485;SDS011;53303;47.476;8.084;2024-01-15T04:34:02;7.93;;;3.30;;
66485;SDS011;53303;47.476;8.084;2024-01-15T04:36:38;7.43;;;2.92;;
66485;SDS011;53303;47.476;8.084;2024-01-15T04:39:03;6.45;;;3.03;;
66485;SDS011;53303;47.476;8.084;2024-01-15T04:41:32;6.72;;;3.03;;
66485;SDS011;53303;47.476;8.084;2024-01-15T04:43:58;6.53;;;3.03;;
66485;SDS011;53303;47.476;8.084;2024-01-15T04:46:25;8.10;;;3.17;;
66485;SDS011;53303;47.476;8.084;2024-01-15T04:48:50;9.25;;;3.20;;
66485;SDS011;53303;47.476;8.084;2024-01-15T04:51:18;8.50;;;3.17;;
66485;SDS011;53303;47.476;8.084;2024-01-15T04:53:44;8.75;;;3.38;;
66485;SDS011;53303;47.476;8.084;2024-01-15T04:56:11;7.18;;;3.40;;
66485;SDS011;53303;47.476;8.084;2024-01-15T04:58:40;7.13;;;2.78;;
66485;SDS011;53303;47.476;8.084;2024-01-15T05:01:05;8.50;;;3.60;;
66485;SDS011;53303;47.476;8.084;2024-01-15T05:03:32;8.85;;;3.75;;
66485;SDS011;53303;47.476;8.084;2024-01-15T05:05:58;13.45;;;4.40;;
66485;SDS011;53303;47.476;8.084;2024-01-15T05:08:23;10.75;;;3.85;;
66485;SDS011;53303;47.476;8.084;2024-01-15T05:10:48;9.43;;;4.35;;
66485;SDS011;53303;47.476;8.084;2024-01-15T05:13:14;13.10;;;5.55;;
66485;SDS011;53303;47.476;8.084;2024-01-15T05:15:42;11.25;;;4.82;;
66485;SDS011;53303;47.476;8.084;2024-01-15T05:18:07;11.98;;;4.90;;
66485;SDS011;53303;47.476;8.084;2024-01-15T05:20:35;9.27;;;4.97;;
66485;SDS011;53303;47.476;8.084;2024-01-15T05:23:00;9.30;;;4.68;;
66485;SDS011;53303;47.476;8.084;2024-01-15T05:25:26;10.85;;;3.78;;
66485;SDS011;53303;47.476;8.084;2024-01-15T05:27:51;11.43;;;4.22;;
66485;SDS011;53303;47.476;8.084;2024-01-15T05:30:19;9.70;;;3.42;;
66485;SDS011;53303;47.476;8.084;2024-01-15T05:32:44;11.18;;;4.40;;
66485;SDS011;53303;47.476;8.084;2024-01-15T05:35:10;8.57;;;4.07;;
66485;SDS011;53303;47.476;8.084;2024-01-15T05:37:35;8.52;;;3.33;;
66485;SDS011;53303;47.476;8.084;2024-01-15T05:40:03;7.53;;;3.50;;
66485;SDS011;53303;47.476;8.084;2024-01-15T05:42:29;8.90;;;3.80;;
66485;SDS011;53303;47.476;8.084;2024-01-15T05:44:56;8.07;;;3.60;;
66485;SDS011;53303;47.476;8.084;2024-01-15T05:47:24;8.57;;;3.63;;
66485;SDS011;53303;47.476;8.084;2024-01-15T05:49:52;8.10;;;3.28;;
66485;SDS011;53303;47.476;8.084;2024-01-15T05:52:17;7.72;;;3.15;;
66485;SDS011;53303;47.476;8.084;2024-01-15T05:54:45;8.90;;;3.50;;
66485;SDS011;53303;47.476;8.084;2024-01-15T05:57:13;7.55;;;3.05;;
66485;SDS011;53303;47.476;8.084;2024-01-15T05:59:38;9.50;;;3.47;;
66485;SDS011;53303;47.476;8.084;2024-01-15T06:02:04;8.70;;;3.83;;
66485;SDS011;53303;47.476;8.084;2024-01-15T06:04:31;7.25;;;3.10;;
66485;SDS011;53303;47.476;8.084;2024-01-15T06:06:57;7.75;;;3.05;;
66485;SDS011;53303;47.476;8.084;2024-01-15T06:09:22;8.30;;;3.47;;
66485;SDS011;53303;47.476;8.084;2024-01-15T06:11:50;7.43;;;3.08;;
66485;SDS011;53303;47.476;8.084;2024-01-15T06:14:17;6.32;;;3.08;;
66485;SDS011;53303;47.476;8.084;2024-01-15T06:16:43;9.88;;;3.10;;
66485;SDS011;53303;47.476;8.084;2024-01-15T06:19:08;8.55;;;3.13;;
66485;SDS011;53303;47.476;8.084;2024-01-15T06:21:36;7.13;;;2.80;;
66485;SDS011;53303;47.476;8.084;2024-01-15T06:24:04;6.15;;;2.80;;
66485;SDS011;53303;47.476;8.084;2024-01-15T06:26:29;7.53;;;2.92;;
66485;SDS011;53303;47.476;8.084;2024-01-15T06:28:55;7.10;;;2.95;;
66485;SDS011;53303;47.476;8.084;2024-01-15T06:31:20;7.78;;;3.08;;
66485;SDS011;53303;47.476;8.084;2024-01-15T06:33:46;8.27;;;2.88;;
66485;SDS011;53303;47.476;8.084;2024-01-15T06:36:13;7.38;;;3.30;;
66485;SDS011;53303;47.476;8.084;2024-01-15T06:38:42;6.88;;;2.75;;
66485;SDS011;53303;47.476;8.084;2024-01-15T06:41:09;11.27;;;3.03;;
66485;SDS011;53303;47.476;8.084;2024-01-15T06:43:37;6.60;;;2.53;;
66485;SDS011;53303;47.476;8.084;2024-01-15T06:46:05;6.45;;;2.97;;
66485;SDS011;53303;47.476;8.084;2024-01-15T06:48:33;6.05;;;2.67;;
66485;SDS011;53303;47.476;8.084;2024-01-15T06:50:58;10.77;;;3.40;;
66485;SDS011;53303;47.476;8.084;2024-01-15T06:53:24;6.93;;;3.00;;
66485;SDS011;53303;47.476;8.084;2024-01-15T06:55:50;7.68;;;2.70;;
66485;SDS011;53303;47.476;8.084;2024-01-15T06:58:20;6.82;;;2.42;;
66485;SDS011;53303;47.476;8.084;2024-01-15T07:00:47;7.53;;;2.65;;
66485;SDS011;53303;47.476;8.084;2024-01-15T07:03:16;7.95;;;2.90;;
66485;SDS011;53303;47.476;8.084;2024-01-15T07:05:43;6.38;;;2.88;;
66485;SDS011;53303;47.476;8.084;2024-01-15T07:08:11;6.82;;;2.40;;
66485;SDS011;53303;47.476;8.084;2024-01-15T07:10:36;8.80;;;2.70;;
66485;SDS011;53303;47.476;8.084;2024-01-15T07:13:02;9.27;;;2.92;;
66485;SDS011;53303;47.476;8.084;2024-01-15T07:15:27;7.25;;;2.97;;
66485;SDS011;53303;47.476;8.084;2024-01-15T07:17:53;7.07;;;2.35;;
66485;SDS011;53303;47.476;8.084;2024-01-15T07:20:18;5.25;;;2.60;;
66485;SDS011;53303;47.476;8.084;2024-01-15T07:22:44;7.38;;;2.60;;
66485;SDS011;53303;47.476;8.084;2024-01-15T07:25:10;10.30;;;3.50;;
66485;SDS011;53303;47.476;8.084;2024-01-15T07:27:35;7.55;;;2.90;;
66485;SDS011;53303;47.476;8.084;2024-01-15T07:30:00;10.02;;;2.80;;
66485;SDS011;53303;47.476;8.084;2024-01-15T07:32:26;9.02;;;2.88;;
66485;SDS011;53303;47.476;8.084;2024-01-15T07:34:51;8.30;;;2.90;;
66485;SDS011;53303;47.476;8.084;2024-01-15T07:37:17;6.65;;;2.78;;
66485;SDS011;53303;47.476;8.084;2024-01-15T07:39:48;6.88;;;2.70;;
66485;SDS011;53303;47.476;8.084;2024-01-15T07:42:14;8.98;;;2.75;;
66485;SDS011;53303;47.476;8.084;2024-01-15T07:44:39;7.28;;;2.90;;
66485;SDS011;53303;47.476;8.084;2024-01-15T07:47:05;8.68;;;3.00;;
66485;SDS011;53303;47.476;8.084;2024-01-15T07:49:33;6.10;;;2.53;;
66485;SDS011;53303;47.476;8.084;2024-01-15T07:51:59;8.27;;;3.10;;
66485;SDS011;53303;47.476;8.084;2024-01-15T07:54:25;6.43;;;2.35;;
66485;SDS011;53303;47.476;8.084;2024-01-15T07:56:54;6.95;;;2.40;;
66485;SDS011;53303;47.476;8.084;2024-01-15T07:59:21;6.65;;;2.58;;
66485;SDS011;53303;47.476;8.084;2024-01-15T08:01:46;6.53;;;2.50;;
66485;SDS011;53303;47.476;8.084;2024-01-15T08:04:14;7.72;;;2.50;;
66485;SDS011;53303;47.476;8.084;2024-01-15T08:06:40;6.60;;;2.22;;
66485;SDS011;53303;47.476;8.084;2024-01-15T08:09:05;5.55;;;2.38;;
66485;SDS011;53303;47.476;8.084;2024-01-15T08:11:31;6.65;;;2.40;;
66485;SDS011;53303;47.476;8.084;2024-01-15T08:13:56;5.97;;;2.95;;
66485;SDS011;53303;47.476;8.084;2024-01-15T08:16:26;7.03;;;2.40;;
66485;SDS011;53303;47.476;8.084;2024-01-15T08:18:54;7.22;;;2.90;;
66485;SDS011;53303;47.476;8.084;2024-01-15T08:21:22;5.18;;;2.30;;
66485;SDS011;53303;47.476;8.084;2024-01-15T08:23:47;5.72;;;2.30;;
66485;SDS011;53303;47.476;8.084;2024-01-15T08:26:12;8.13;;;2.33;;
66485;SDS011;53303;47.476;8.084;2024-01-15T08:28:38;5.05;;;2.35;;
66485;SDS011;53303;47.476;8.084;2024-01-15T08:31:03;4.95;;;1.90;;
66485;SDS011;53303;47.476;8.084;2024-01-15T08:33:29;6.43;;;2.40;;
66485;SDS011;53303;47.476;8.084;2024-01-15T08:35:54;6.50;;;2.30;;
66485;SDS011;53303;47.476;8.084;2024-01-15T08:38:20;5.00;;;2.15;;
66485;SDS011;53303;47.476;8.084;2024-01-15T08:40:45;5.85;;;2.10;;
66485;SDS011;53303;47.476;8.084;2024-01-15T08:43:11;6.07;;;2.60;;
66485;SDS011;53303;47.476;8.084;2024-01-15T08:45:38;7.95;;;2.30;;
66485;SDS011;53303;47.476;8.084;2024-01-15T08:48:04;5.25;;;2.20;;
66485;SDS011;53303;47.476;8.084;2024-01-15T08:50:32;7.75;;;2.50;;
66485;SDS011;53303;47.476;8.084;2024-01-15T08:53:01;5.30;;;2.17;;
66485;SDS011;53303;47.476;8.084;2024-01-15T08:55:26;5.55;;;2.72;;
66485;SDS011;53303;47.476;8.084;2024-01-15T08:57:51;6.88;;;2.40;;
66485;SDS011;53303;47.476;8.084;2024-01-15T09:00:20;4.97;;;2.08;;
66485;SDS011;53303;47.476;8.084;2024-01-15T09:02:46;6.05;;;2.13;;
66485;SDS011;53303;47.476;8.084;2024-01-15T09:05:11;4.53;;;1.92;;
66485;SDS011;53303;47.476;8.084;2024-01-15T09:07:39;4.82;;;1.63;;
66485;SDS011;53303;47.476;8.084;2024-01-15T09:10:04;7.03;;;2.15;;
66485;SDS011;53303;47.476;8.084;2024-01-15T09:12:30;5.38;;;2.00;;
66485;SDS011;53303;47.476;8.084;2024-01-15T09:14:58;5.72;;;2.03;;
66485;SDS011;53303;47.476;8.084;2024-01-15T09:17:23;5.85;;;2.13;;
66485;SDS011;53303;47.476;8.084;2024-01-15T09:19:49;6.10;;;2.28;;
66485;SDS011;53303;47.476;8.084;2024-01-15T09:22:17;6.53;;;2.00;;
66485;SDS011;53303;47.476;8.084;2024-01-15T09:24:45;6.00;;;2.08;;
66485;SDS011;53303;47.476;8.084;2024-01-15T09:27:11;6.13;;;1.90;;
66485;SDS011;53303;47.476;8.084;2024-01-15T09:29:36;4.60;;;1.60;;
66485;SDS011;53303;47.476;8.084;2024-01-15T09:32:05;4.53;;;2.13;;
66485;SDS011;53303;47.476;8.084;2024-01-15T09:34:30;5.50;;;2.38;;
66485;SDS011;53303;47.476;8.084;2024-01-15T09:36:58;5.20;;;2.10;;
66485;SDS011;53303;47.476;8.084;2024-01-15T09:39:28;6.03;;;2.20;;
66485;SDS011;53303;47.476;8.084;2024-01-15T09:41:56;6.18;;;2.35;;
66485;SDS011;53303;47.476;8.084;2024-01-15T09:44:25;5.88;;;2.00;;
66485;SDS011;53303;47.476;8.084;2024-01-15T09:46:52;5.45;;;1.80;;
66485;SDS011;53303;47.476;8.084;2024-01-15T09:49:18;7.20;;;2.38;;
66485;SDS011;53303;47.476;8.084;2024-01-15T09:51:45;5.25;;;2.10;;
66485;SDS011;53303;47.476;8.084;2024-01-15T09:54:12;6.60;;;2.05;;
66485;SDS011;53303;47.476;8.084;2024-01-15T09:56:38;5.10;;;1.98;;
66485;SDS011;53303;47.476;8.084;2024-01-15T09:59:07;5.50;;;2.30;;
66485;SDS011;53303;47.476;8.084;2024-01-15T10:01:32;4.85;;;1.88;;
66485;SDS011;53303;47.476;8.084;2024-01-15T10:04:01;5.57;;;2.05;;
66485;SDS011;53303;47.476;8.084;2024-01-15T10:06:27;4.20;;;1.83;;
66485;SDS011;53303;47.476;8.084;2024-01-15T10:08:53;4.40;;;1.63;;
66485;SDS011;53303;47.476;8.084;2024-01-15T10:11:23;5.53;;;2.15;;
66485;SDS011;53303;47.476;8.084;2024-01-15T10:13:48;5.97;;;2.00;;
66485;SDS011;53303;47.476;8.084;2024-01-15T10:16:18;4.30;;;1.80;;
66485;SDS011;53303;47.476;8.084;2024-01-15T10:18:47;4.70;;;1.73;;
66485;SDS011;53303;47.476;8.084;2024-01-15T10:21:15;5.10;;;2.10;;
66485;SDS011;53303;47.476;8.084;2024-01-15T10:23:43;5.30;;;2.10;;
66485;SDS011;53303;47.476;8.084;2024-01-15T10:26:09;6.15;;;2.17;;
66485;SDS011;53303;47.476;8.084;2024-01-15T10:28:40;5.15;;;2.22;;
66485;SDS011;53303;47.476;8.084;2024-01-15T10:31:06;6.55;;;2.10;;
66485;SDS011;53303;47.476;8.084;2024-01-15T10:33:31;4.60;;;2.28;;
66485;SDS011;53303;47.476;8.084;2024-01-15T10:35:57;5.03;;;2.17;;
66485;SDS011;53303;47.476;8.084;2024-01-15T10:38:24;5.28;;;2.00;;
66485;SDS011;53303;47.476;8.084;2024-01-15T10:40:51;4.80;;;1.92;;
66485;SDS011;53303;47.476;8.084;2024-01-15T10:43:17;4.82;;;2.03;;
66485;SDS011;53303;47.476;8.084;2024-01-15T10:45:44;5.28;;;2.05;;
66485;SDS011;53303;47.476;8.084;2024-01-15T10:48:10;4.93;;;1.73;;
66485;SDS011;53303;47.476;8.084;2024-01-15T10:50:36;4.18;;;1.83;;
66485;SDS011;53303;47.476;8.084;2024-01-15T10:53:01;5.10;;;2.03;;
66485;SDS011;53303;47.476;8.084;2024-01-15T10:55:31;4.15;;;2.00;;
66485;SDS011;53303;47.476;8.084;2024-01-15T10:58:00;5.03;;;1.95;;
66485;SDS011;53303;47.476;8.084;2024-01-15T11:00:26;4.65;;;1.75;;
66485;SDS011;53303;47.476;8.084;2024-01-15T11:02:56;4.78;;;1.90;;
66485;SDS011;53303;47.476;8.084;2024-01-15T11:05:24;6.10;;;1.80;;
66485;SDS011;53303;47.476;8.084;2024-01-15T11:07:50;4.82;;;1.90;;
66485;SDS011;53303;47.476;8.084;2024-01-15T11:13:53;3.88;;;1.38;;
66485;SDS011;53303;47.476;8.084;2024-01-15T11:18:29;4.60;;;1.63;;
66485;SDS011;53303;47.476;8.084;2024-01-15T11:23:44;4.50;;;1.70;;
66485;SDS011;53303;47.476;8.084;2024-01-15T11:28:56;7.75;;;1.90;;
66485;SDS011;53303;47.476;8.084;2024-01-15T11:34:06;4.53;;;1.60;;
66485;SDS011;53303;47.476;8.084;2024-01-15T11:42:00;5.18;;;1.67;;
66485;SDS011;53303;47.476;8.084;2024-01-15T11:44:28;4.63;;;1.80;;
66485;SDS011;53303;47.476;8.084;2024-01-15T11:49:36;4.63;;;1.80;;
66485;SDS011;53303;47.476;8.084;2024-01-15T11:52:05;4.25;;;2.00;;
66485;SDS011;53303;47.476;8.084;2024-01-15T11:54:33;4.88;;;1.40;;
66485;SDS011;53303;47.476;8.084;2024-01-15T11:57:09;4.22;;;1.60;;
66485;SDS011;53303;47.476;8.084;2024-01-15T11:59:44;5.20;;;1.70;;
66485;SDS011;53303;47.476;8.084;2024-01-15T12:02:11;4.47;;;1.90;;
66485;SDS011;53303;47.476;8.084;2024-01-15T12:04:41;4.15;;;1.40;;
66485;SDS011;53303;47.476;8.084;2024-01-15T12:07:08;4.72;;;1.73;;
66485;SDS011;53303;47.476;8.084;2024-01-15T12:09:34;7.82;;;1.98;;
66485;SDS011;53303;47.476;8.084;2024-01-15T12:12:03;3.90;;;1.40;;
66485;SDS011;53303;47.476;8.084;2024-01-15T12:14:39;3.70;;;1.30;;
66485;SDS011;53303;47.476;8.084;2024-01-15T12:17:10;4.28;;;1.70;;
66485;SDS011;53303;47.476;8.084;2024-01-15T12:19:44;4.45;;;1.50;;
66485;SDS011;53303;47.476;8.084;2024-01-15T12:22:10;4.15;;;1.67;;
66485;SDS011;53303;47.476;8.084;2024-01-15T12:24:35;5.68;;;1.50;;
66485;SDS011;53303;47.476;8.084;2024-01-15T12:27:01;4.30;;;1.50;;
66485;SDS011;53303;47.476;8.084;2024-01-15T12:29:29;4.38;;;1.65;;
66485;SDS011;53303;47.476;8.084;2024-01-15T12:32:00;5.68;;;1.40;;
66485;SDS011;53303;47.476;8.084;2024-01-15T12:34:28;9.23;;;1.83;;
66485;SDS011;53303;47.476;8.084;2024-01-15T12:36:56;4.55;;;1.80;;
66485;SDS011;53303;47.476;8.084;2024-01-15T12:39:22;4.25;;;1.50;;
66485;SDS011;53303;47.476;8.084;2024-01-15T12:41:50;3.40;;;1.40;;
66485;SDS011;53303;47.476;8.084;2024-01-15T12:44:18;6.65;;;1.80;;
66485;SDS011;53303;47.476;8.084;2024-01-15T12:46:47;3.72;;;1.65;;
66485;SDS011;53303;47.476;8.084;2024-01-15T12:49:13;4.68;;;1.90;;
66485;SDS011;53303;47.476;8.084;2024-01-15T12:51:39;4.95;;;1.88;;
66485;SDS011;53303;47.476;8.084;2024-01-15T12:54:19;5.50;;;2.00;;
66485;SDS011;53303;47.476;8.084;2024-01-15T12:56:52;4.22;;;1.92;;
66485;SDS011;53303;47.476;8.084;2024-01-15T12:59:20;4.40;;;1.73;;
66485;SDS011;53303;47.476;8.084;2024-01-15T13:01:49;4.93;;;2.10;;
66485;SDS011;53303;47.476;8.084;2024-01-15T13:04:24;4.20;;;1.58;;
66485;SDS011;53303;47.476;8.084;2024-01-15T13:06:50;5.25;;;2.03;;
66485;SDS011;53303;47.476;8.084;2024-01-15T13:09:18;5.07;;;2.05;;
66485;SDS011;53303;47.476;8.084;2024-01-15T13:11:44;4.53;;;1.67;;
66485;SDS011;53303;47.476;8.084;2024-01-15T13:14:12;5.40;;;2.28;;
66485;SDS011;53303;47.476;8.084;2024-01-15T13:16:42;4.93;;;1.92;;
66485;SDS011;53303;47.476;8.084;2024-01-15T13:19:08;5.82;;;2.03;;
66485;SDS011;53303;47.476;8.084;2024-01-15T13:21:34;11.15;;;1.88;;
66485;SDS011;53303;47.476;8.084;2024-01-15T13:24:02;4.93;;;1.83;;
66485;SDS011;53303;47.476;8.084;2024-01-15T13:26:31;4.70;;;1.73;;
66485;SDS011;53303;47.476;8.084;2024-01-15T13:29:00;8.73;;;2.40;;
66485;SDS011;53303;47.476;8.084;2024-01-15T13:31:26;4.55;;;1.83;;
66485;SDS011;53303;47.476;8.084;2024-01-15T13:33:59;6.75;;;1.80;;
66485;SDS011;53303;47.476;8.084;2024-01-15T13:36:27;5.72;;;1.98;;
66485;SDS011;53303;47.476;8.084;2024-01-15T13:38:52;8.40;;;1.88;;
66485;SDS011;53303;47.476;8.084;2024-01-15T13:41:19;5.15;;;2.08;;
66485;SDS011;53303;47.476;8.084;2024-01-15T13:43:50;5.20;;;2.13;;
66485;SDS011;53303;47.476;8.084;2024-01-15T13:46:18;6.03;;;2.10;;
66485;SDS011;53303;47.476;8.084;2024-01-15T13:48:51;4.75;;;1.55;;
66485;SDS011;53303;47.476;8.084;2024-01-15T13:51:23;5.32;;;2.28;;
66485;SDS011;53303;47.476;8.084;2024-01-15T13:53:49;4.95;;;2.17;;
66485;SDS011;53303;47.476;8.084;2024-01-15T13:56:15;5.85;;;2.10;;
66485;SDS011;53303;47.476;8.084;2024-01-15T13:58:42;6.53;;;2.30;;
66485;SDS011;53303;47.476;8.084;2024-01-15T14:01:08;4.88;;;2.20;;
66485;SDS011;53303;47.476;8.084;2024-01-15T14:03:35;6.32;;;2.45;;
66485;SDS011;53303;47.476;8.084;2024-01-15T14:06:03;5.43;;;2.00;;
66485;SDS011;53303;47.476;8.084;2024-01-15T14:08:36;5.82;;;2.10;;
66485;SDS011;53303;47.476;8.084;2024-01-15T14:11:02;5.47;;;1.98;;
66485;SDS011;53303;47.476;8.084;2024-01-15T14:13:31;5.22;;;2.28;;
66485;SDS011;53303;47.476;8.084;2024-01-15T14:16:02;4.43;;;1.98;;
66485;SDS011;53303;47.476;8.084;2024-01-15T14:18:28;7.05;;;2.42;;
66485;SDS011;53303;47.476;8.084;2024-01-15T14:20:54;5.57;;;2.20;;
66485;SDS011;53303;47.476;8.084;2024-01-15T14:23:19;5.90;;;2.15;;
66485;SDS011;53303;47.476;8.084;2024-01-15T14:25:45;5.70;;;2.25;;
66485;SDS011;53303;47.476;8.084;2024-01-15T14:28:13;5.55;;;2.55;;
66485;SDS011;53303;47.476;8.084;2024-01-15T14:30:39;6.47;;;2.20;;
66485;SDS011;53303;47.476;8.084;2024-01-15T14:33:04;5.80;;;2.33;;
66485;SDS011;53303;47.476;8.084;2024-01-15T14:35:30;4.63;;;1.90;;
66485;SDS011;53303;47.476;8.084;2024-01-15T14:37:58;4.28;;;2.10;;
66485;SDS011;53303;47.476;8.084;2024-01-15T14:40:25;5.03;;;2.40;;
66485;SDS011;53303;47.476;8.084;2024-01-15T14:42:54;5.80;;;2.17;;
66485;SDS011;53303;47.476;8.084;2024-01-15T14:45:20;6.18;;;2.45;;
66485;SDS011;53303;47.476;8.084;2024-01-15T14:47:52;6.03;;;2.35;;
66485;SDS011;53303;47.476;8.084;2024-01-15T14:50:21;5.47;;;2.60;;
66485;SDS011;53303;47.476;8.084;2024-01-15T14:52:48;6.05;;;2.45;;
66485;SDS011;53303;47.476;8.084;2024-01-15T14:55:18;5.88;;;2.58;;
66485;SDS011;53303;47.476;8.084;2024-01-15T14:57:48;7.05;;;2.25;;
66485;SDS011;53303;47.476;8.084;2024-01-15T15:00:14;5.75;;;2.60;;
66485;SDS011;53303;47.476;8.084;2024-01-15T15:02:41;6.60;;;2.35;;
66485;SDS011;53303;47.476;8.084;2024-01-15T15:05:07;6.72;;;2.45;;
66485;SDS011;53303;47.476;8.084;2024-01-15T15:07:33;6.22;;;2.55;;